KEND

Vance AFB Airport

Enid, Oklahoma, USA
METAR KEND 151256Z 30008KT 10SM CLR M05/M06 A3025 RMK AO2A SLP256 T10521062
Observed Flight Rules
Dec-15 @ 12:56 UTC (an hour ago) Visual Flight Rules
Wind Visibility Clouds
300° at 8 knots 10 miles
  • Clear skies
Temperatures Readings
Current -5°C / 23°F
Dewpoint -6°C / 21°F
Humidity 93%
Altimeter 30.25" Hg
Pressure 1025.6 hPa
Elevation 398
METAR KEND 151256Z 30008KT 10SM CLR M05/M06 A3025 RMK AO2A SLP256 T10521062
Observed Flight Rules
Dec-15 @ 12:56 UTC
(an hour ago)
VFR
Wind Visibility
300° at 8 knots 10 miles
Clouds
  • Clear skies
Temperature Dewpoint
-5°C / 23°F -6°C / 21°F
Humidity Altimeter Pressure
93% 30.25" Hg 1025.6 hPa